sensor_id;sensor_type;location;lat;lon;timestamp;pressure;altitude;pressure_sealevel;temperature;humidity
4149;BME280;2088;51.032;7.082;2022-09-09T00:01:37;48357.97;;;-142.28;100.00
4149;BME280;2088;51.032;7.082;2022-09-09T00:04:15;48373.44;;;-142.28;99.35
4149;BME280;2088;51.032;7.082;2022-09-09T00:06:55;48371.50;;;-142.28;99.32
4149;BME280;2088;51.032;7.082;2022-09-09T00:09:27;48381.19;;;-142.28;99.64
4149;BME280;2088;51.032;7.082;2022-09-09T00:11:57;48390.84;;;-142.28;99.69
4149;BME280;2088;51.032;7.082;2022-09-09T00:14:35;48385.06;;;-142.28;99.63
4149;BME280;2088;51.032;7.082;2022-09-09T00:17:08;48385.06;;;-142.28;99.63
4149;BME280;2088;51.032;7.082;2022-09-09T00:19:41;48417.94;;;-142.28;100.00
4149;BME280;2088;51.032;7.082;2022-09-09T00:22:15;48416.00;;;-142.28;99.70
4149;BME280;2088;51.032;7.082;2022-09-09T00:24:44;48417.94;;;-142.28;100.00
4149;BME280;2088;51.032;7.082;2022-09-09T00:27:16;48410.22;;;-142.28;100.00
4149;BME280;2088;51.032;7.082;2022-09-09T00:29:47;48441.19;;;-142.28;100.00
4149;BME280;2088;51.032;7.082;2022-09-09T00:32:18;48421.81;;;-142.28;100.00
4149;BME280;2088;51.032;7.082;2022-09-09T00:34:49;48462.47;;;-142.28;100.00
4149;BME280;2088;51.032;7.082;2022-09-09T00:37:19;48474.06;;;-142.28;100.00
4149;BME280;2088;51.032;7.082;2022-09-09T00:39:48;48474.06;;;-142.28;100.00
4149;BME280;2088;51.032;7.082;2022-09-09T00:42:20;48497.31;;;-142.28;100.00
4149;BME280;2088;51.032;7.082;2022-09-09T00:44:53;48485.69;;;-142.28;100.00
4149;BME280;2088;51.032;7.082;2022-09-09T00:47:36;48501.16;;;-142.28;100.00
4149;BME280;2088;51.032;7.082;2022-09-09T00:50:17;48501.16;;;-142.28;100.00
4149;BME280;2088;51.032;7.082;2022-09-09T00:52:56;48497.31;;;-142.28;100.00
4149;BME280;2088;51.032;7.082;2022-09-09T00:55:28;48493.44;;;-142.28;100.00
4149;BME280;2088;51.032;7.082;2022-09-09T00:57:59;48508.91;;;-142.28;100.00
4149;BME280;2088;51.032;7.082;2022-09-09T01:00:27;48501.16;;;-142.28;100.00
4149;BME280;2088;51.032;7.082;2022-09-09T01:03:18;48485.69;;;-142.28;99.98
4149;BME280;2088;51.032;7.082;2022-09-09T01:05:54;48497.31;;;-142.28;100.00
4149;BME280;2088;51.032;7.082;2022-09-09T01:08:36;48491.50;;;-142.28;99.68
4149;BME280;2088;51.032;7.082;2022-09-09T01:11:10;48508.91;;;-142.28;99.35
4149;BME280;2088;51.032;7.082;2022-09-09T01:13:45;48497.31;;;-142.28;99.78
4149;BME280;2088;51.032;7.082;2022-09-09T01:16:13;48501.16;;;-142.28;99.80
4149;BME280;2088;51.032;7.082;2022-09-09T01:18:44;48526.34;;;-142.28;99.43
4149;BME280;2088;51.032;7.082;2022-09-09T01:21:25;48501.16;;;-142.28;99.90
4149;BME280;2088;51.032;7.082;2022-09-09T01:24:15;48489.56;;;-142.28;99.53
4149;BME280;2088;51.032;7.082;2022-09-09T01:26:46;48516.66;;;-142.28;100.00
4149;BME280;2088;51.032;7.082;2022-09-09T01:29:15;48516.66;;;-142.28;99.98
4149;BME280;2088;51.032;7.082;2022-09-09T01:31:52;48516.66;;;-142.28;100.00
4149;BME280;2088;51.032;7.082;2022-09-09T01:34:21;48512.78;;;-142.28;99.92
4149;BME280;2088;51.032;7.082;2022-09-09T01:36:52;48514.72;;;-142.28;100.00
4149;BME280;2088;51.032;7.082;2022-09-09T01:39:20;48520.53;;;-142.28;99.95
4149;BME280;2088;51.032;7.082;2022-09-09T01:41:48;48537.94;;;-142.28;100.00
4149;BME280;2088;51.032;7.082;2022-09-09T01:44:15;48534.06;;;-142.28;100.00
4149;BME280;2088;51.032;7.082;2022-09-09T01:46:43;48543.75;;;-142.28;100.00
4149;BME280;2088;51.032;7.082;2022-09-09T01:49:10;48553.44;;;-142.28;100.00
4149;BME280;2088;51.032;7.082;2022-09-09T01:51:39;48545.69;;;-142.28;100.00
4149;BME280;2088;51.032;7.082;2022-09-09T01:54:07;48543.75;;;-142.28;100.00
4149;BME280;2088;51.032;7.082;2022-09-09T01:56:40;48561.16;;;-142.28;100.00
4149;BME280;2088;51.032;7.082;2022-09-09T01:59:28;48570.84;;;-142.28;100.00
4149;BME280;2088;51.032;7.082;2022-09-09T02:02:09;48572.78;;;-142.28;100.00
4149;BME280;2088;51.032;7.082;2022-09-09T02:04:39;48621.16;;;-142.28;100.00
4149;BME280;2088;51.032;7.082;2022-09-09T02:07:19;48578.59;;;-142.28;100.00
4149;BME280;2088;51.032;7.082;2022-09-09T02:09:52;48553.44;;;-142.28;100.00
4149;BME280;2088;51.032;7.082;2022-09-09T02:12:24;48572.78;;;-142.28;100.00
4149;BME280;2088;51.032;7.082;2022-09-09T02:14:56;48539.88;;;-142.28;99.87
4149;BME280;2088;51.032;7.082;2022-09-09T02:17:28;48530.22;;;-142.28;99.78
4149;BME280;2088;51.032;7.082;2022-09-09T02:20:02;48555.38;;;-142.28;99.53
4149;BME280;2088;51.032;7.082;2022-09-09T02:22:31;48532.13;;;-142.28;99.16
4149;BME280;2088;51.032;7.082;2022-09-09T02:25:00;48536.00;;;-142.28;99.05
4149;BME280;2088;51.032;7.082;2022-09-09T02:27:27;48547.63;;;-142.28;99.14
4149;BME280;2088;51.032;7.082;2022-09-09T02:29:56;48553.44;;;-142.28;99.01
4149;BME280;2088;51.032;7.082;2022-09-09T02:32:25;48537.94;;;-142.28;99.27
4149;BME280;2088;51.032;7.082;2022-09-09T02:34:56;48534.06;;;-142.28;99.11
4149;BME280;2088;51.032;7.082;2022-09-09T02:37:27;48543.75;;;-142.28;98.93
4149;BME280;2088;51.032;7.082;2022-09-09T02:39:57;48520.53;;;-142.28;98.88
4149;BME280;2088;51.032;7.082;2022-09-09T02:42:23;48537.94;;;-142.28;98.90
4149;BME280;2088;51.032;7.082;2022-09-09T02:44:50;48539.88;;;-142.28;99.19
4149;BME280;2088;51.032;7.082;2022-09-09T02:47:25;48537.94;;;-142.28;99.39
4149;BME280;2088;51.032;7.082;2022-09-09T02:50:05;48563.09;;;-142.28;98.83
4149;BME280;2088;51.032;7.082;2022-09-09T02:52:43;48541.81;;;-142.28;98.96
4149;BME280;2088;51.032;7.082;2022-09-09T02:55:16;48532.13;;;-142.28;98.85
4149;BME280;2088;51.032;7.082;2022-09-09T02:57:47;48534.06;;;-142.28;98.94
4149;BME280;2088;51.032;7.082;2022-09-09T03:00:14;48559.25;;;-142.28;98.79
4149;BME280;2088;51.032;7.082;2022-09-09T03:02:42;48534.06;;;-142.28;98.70
4149;BME280;2088;51.032;7.082;2022-09-09T03:05:10;48524.41;;;-142.28;98.53
4149;BME280;2088;51.032;7.082;2022-09-09T03:07:38;48537.94;;;-142.28;98.58
4149;BME280;2088;51.032;7.082;2022-09-09T03:10:05;48516.66;;;-142.28;98.48
4149;BME280;2088;51.032;7.082;2022-09-09T03:12:33;48537.94;;;-142.28;98.89
4149;BME280;2088;51.032;7.082;2022-09-09T03:14:59;48536.00;;;-142.28;99.03
4149;BME280;2088;51.032;7.082;2022-09-09T03:17:25;48551.50;;;-142.28;99.51
4149;BME280;2088;51.032;7.082;2022-09-09T03:19:54;48563.09;;;-142.28;99.15
4149;BME280;2088;51.032;7.082;2022-09-09T03:22:23;48551.50;;;-142.28;99.53
4149;BME280;2088;51.032;7.082;2022-09-09T03:24:50;48539.88;;;-142.28;99.42
4149;BME280;2088;51.032;7.082;2022-09-09T03:27:16;48537.94;;;-142.28;99.13
4149;BME280;2088;51.032;7.082;2022-09-09T03:29:44;48549.56;;;-142.28;99.06
4149;BME280;2088;51.032;7.082;2022-09-09T03:32:11;48559.25;;;-142.28;99.24
4149;BME280;2088;51.032;7.082;2022-09-09T03:34:38;48547.63;;;-142.28;99.19
4149;BME280;2088;51.032;7.082;2022-09-09T03:37:06;48532.13;;;-142.28;98.87
4149;BME280;2088;51.032;7.082;2022-09-09T03:39:33;48568.91;;;-142.28;99.04
4149;BME280;2088;51.032;7.082;2022-09-09T03:41:59;48534.06;;;-142.28;98.91
4149;BME280;2088;51.032;7.082;2022-09-09T03:44:29;48549.56;;;-142.28;98.89
4149;BME280;2088;51.032;7.082;2022-09-09T03:46:55;48568.91;;;-142.28;98.92
4149;BME280;2088;51.032;7.082;2022-09-09T03:49:22;48570.84;;;-142.28;99.35
4149;BME280;2088;51.032;7.082;2022-09-09T03:51:49;48553.44;;;-142.28;99.07
4149;BME280;2088;51.032;7.082;2022-09-09T03:54:17;48553.44;;;-142.28;98.81
4149;BME280;2088;51.032;7.082;2022-09-09T03:56:43;48555.38;;;-142.28;98.79
4149;BME280;2088;51.032;7.082;2022-09-09T03:59:10;48574.72;;;-142.28;98.66
4149;BME280;2088;51.032;7.082;2022-09-09T04:01:37;48559.25;;;-142.28;98.77
4149;BME280;2088;51.032;7.082;2022-09-09T04:04:04;48549.56;;;-142.28;98.56
4149;BME280;2088;51.032;7.082;2022-09-09T04:06:30;48541.81;;;-142.28;98.74
4149;BME280;2088;51.032;7.082;2022-09-09T04:08:57;48539.88;;;-142.28;98.66
4149;BME280;2088;51.032;7.082;2022-09-09T04:11:25;48539.88;;;-142.28;98.20
4149;BME280;2088;51.032;7.082;2022-09-09T04:13:51;48543.75;;;-142.28;98.06
4149;BME280;2088;51.032;7.082;2022-09-09T04:16:18;48532.13;;;-142.28;98.10
4149;BME280;2088;51.032;7.082;2022-09-09T04:18:45;48555.38;;;-142.28;97.53
4149;BME280;2088;51.032;7.082;2022-09-09T04:21:12;48534.06;;;-142.28;97.44
4149;BME280;2088;51.032;7.082;2022-09-09T04:23:40;48499.25;;;-142.28;97.41
4149;BME280;2088;51.032;7.082;2022-09-09T04:26:07;48541.81;;;-142.28;97.21
4149;BME280;2088;51.032;7.082;2022-09-09T04:28:36;48534.06;;;-142.28;97.39
4149;BME280;2088;51.032;7.082;2022-09-09T04:31:07;48512.78;;;-142.28;96.88
4149;BME280;2088;51.032;7.082;2022-09-09T04:33:35;48534.06;;;-142.28;97.06
4149;BME280;2088;51.032;7.082;2022-09-09T04:36:02;48522.47;;;-142.28;96.97
4149;BME280;2088;51.032;7.082;2022-09-09T04:38:28;48530.22;;;-142.28;97.27
4149;BME280;2088;51.032;7.082;2022-09-09T04:40:55;48520.53;;;-142.28;97.08
4149;BME280;2088;51.032;7.082;2022-09-09T04:43:22;48520.53;;;-142.28;96.37
4149;BME280;2088;51.032;7.082;2022-09-09T04:45:52;48505.03;;;-142.28;96.23
4149;BME280;2088;51.032;7.082;2022-09-09T04:48:19;48501.16;;;-142.28;96.27
4149;BME280;2088;51.032;7.082;2022-09-09T04:50:54;48508.91;;;-142.28;96.49
4149;BME280;2088;51.032;7.082;2022-09-09T04:53:21;48497.31;;;-142.28;96.31
4149;BME280;2088;51.032;7.082;2022-09-09T04:55:48;48520.53;;;-142.28;96.25
4149;BME280;2088;51.032;7.082;2022-09-09T04:58:14;48508.91;;;-142.28;95.99
4149;BME280;2088;51.032;7.082;2022-09-09T05:00:41;48497.31;;;-142.28;95.96
4149;BME280;2088;51.032;7.082;2022-09-09T05:03:08;48505.03;;;-142.28;96.03
4149;BME280;2088;51.032;7.082;2022-09-09T05:05:35;48499.25;;;-142.28;96.67
4149;BME280;2088;51.032;7.082;2022-09-09T05:08:02;48497.31;;;-142.28;96.37
4149;BME280;2088;51.032;7.082;2022-09-09T05:10:30;48516.66;;;-142.28;96.44
4149;BME280;2088;51.032;7.082;2022-09-09T05:12:57;48506.97;;;-142.28;96.24
4149;BME280;2088;51.032;7.082;2022-09-09T05:15:23;48495.38;;;-142.28;95.98
4149;BME280;2088;51.032;7.082;2022-09-09T05:17:50;48487.63;;;-142.28;95.78
4149;BME280;2088;51.032;7.082;2022-09-09T05:20:18;48508.91;;;-142.28;95.98
4149;BME280;2088;51.032;7.082;2022-09-09T05:22:45;48468.28;;;-142.28;95.77
4149;BME280;2088;51.032;7.082;2022-09-09T05:25:11;48489.56;;;-142.28;95.97
4149;BME280;2088;51.032;7.082;2022-09-09T05:27:38;48489.56;;;-142.28;96.29
4149;BME280;2088;51.032;7.082;2022-09-09T05:30:05;48479.88;;;-142.28;96.82
4149;BME280;2088;51.032;7.082;2022-09-09T05:32:32;48493.44;;;-142.28;96.83
4149;BME280;2088;51.032;7.082;2022-09-09T05:34:59;48522.47;;;-142.28;97.99
4149;BME280;2088;51.032;7.082;2022-09-09T05:37:28;48541.81;;;-142.28;98.77
4149;BME280;2088;51.032;7.082;2022-09-09T05:39:55;48551.50;;;-142.28;98.95
4149;BME280;2088;51.032;7.082;2022-09-09T05:42:21;48576.66;;;-142.28;100.00
4149;BME280;2088;51.032;7.082;2022-09-09T05:44:48;48576.66;;;-142.28;100.00
4149;BME280;2088;51.032;7.082;2022-09-09T05:47:16;48582.47;;;-142.28;100.00
4149;BME280;2088;51.032;7.082;2022-09-09T05:49:42;48607.63;;;-142.28;100.00
4149;BME280;2088;51.032;7.082;2022-09-09T05:52:09;48630.84;;;-142.28;100.00
4149;BME280;2088;51.032;7.082;2022-09-09T05:54:36;48671.50;;;-142.28;100.00
4149;BME280;2088;51.032;7.082;2022-09-09T05:57:04;48694.72;;;-142.28;100.00
4149;BME280;2088;51.032;7.082;2022-09-09T05:59:31;48702.47;;;-142.28;100.00
4149;BME280;2088;51.032;7.082;2022-09-09T06:01:57;48667.63;;;-142.28;100.00
4149;BME280;2088;51.032;7.082;2022-09-09T06:04:24;48683.09;;;-142.28;100.00
4149;BME280;2088;51.032;7.082;2022-09-09T06:06:50;48686.97;;;-142.28;100.00
4149;BME280;2088;51.032;7.082;2022-09-09T06:09:17;48714.06;;;-142.28;100.00
4149;BME280;2088;51.032;7.082;2022-09-09T06:11:44;48710.19;;;-142.28;100.00
4149;BME280;2088;51.032;7.082;2022-09-09T06:14:11;48719.88;;;-142.28;100.00
4149;BME280;2088;51.032;7.082;2022-09-09T06:16:38;48702.47;;;-142.28;100.00
4149;BME280;2088;51.032;7.082;2022-09-09T06:19:04;48702.47;;;-142.28;100.00
4149;BME280;2088;51.032;7.082;2022-09-09T06:21:33;48648.28;;;-142.28;100.00
4149;BME280;2088;51.032;7.082;2022-09-09T06:24:01;48675.38;;;-142.28;100.00
4149;BME280;2088;51.032;7.082;2022-09-09T06:26:30;48650.19;;;-142.28;100.00
4149;BME280;2088;51.032;7.082;2022-09-09T06:28:59;48659.88;;;-142.28;100.00
4149;BME280;2088;51.032;7.082;2022-09-09T06:31:27;48659.88;;;-142.28;100.00
4149;BME280;2088;51.032;7.082;2022-09-09T06:33:56;48640.53;;;-142.28;99.50
4149;BME280;2088;51.032;7.082;2022-09-09T06:36:24;48626.97;;;-142.28;99.79
4149;BME280;2088;51.032;7.082;2022-09-09T06:38:51;48646.34;;;-142.28;99.88
4149;BME280;2088;51.032;7.082;2022-09-09T06:41:19;48659.88;;;-142.28;100.00
4149;BME280;2088;51.032;7.082;2022-09-09T06:43:46;48634.72;;;-142.28;100.00
4149;BME280;2088;51.032;7.082;2022-09-09T06:46:15;48648.28;;;-142.28;100.00
4149;BME280;2088;51.032;7.082;2022-09-09T06:48:43;48642.47;;;-142.28;100.00
4149;BME280;2088;51.032;7.082;2022-09-09T06:51:11;48650.19;;;-142.28;99.79
4149;BME280;2088;51.032;7.082;2022-09-09T06:53:40;48659.88;;;-142.28;99.43
4149;BME280;2088;51.032;7.082;2022-09-09T06:56:18;48594.06;;;-142.28;98.53
4149;BME280;2088;51.032;7.082;2022-09-09T06:58:45;48599.88;;;-142.28;97.77
4149;BME280;2088;51.032;7.082;2022-09-09T07:01:16;48594.06;;;-142.28;97.92
4149;BME280;2088;51.032;7.082;2022-09-09T07:03:46;48584.41;;;-142.28;97.27
4149;BME280;2088;51.032;7.082;2022-09-09T07:06:14;48590.19;;;-142.28;97.13
4149;BME280;2088;51.032;7.082;2022-09-09T07:08:42;48594.06;;;-142.28;96.74
4149;BME280;2088;51.032;7.082;2022-09-09T07:11:08;48561.16;;;-142.28;96.88
4149;BME280;2088;51.032;7.082;2022-09-09T07:13:36;48582.47;;;-142.28;96.01
4149;BME280;2088;51.032;7.082;2022-09-09T07:16:03;48555.38;;;-142.28;95.01
4149;BME280;2088;51.032;7.082;2022-09-09T07:18:31;48543.75;;;-142.28;94.39
4149;BME280;2088;51.032;7.082;2022-09-09T07:20:58;48518.59;;;-142.28;93.85
4149;BME280;2088;51.032;7.082;2022-09-09T07:23:25;48508.91;;;-142.28;92.78
4149;BME280;2088;51.032;7.082;2022-09-09T07:25:52;48460.53;;;-142.28;89.97
4149;BME280;2088;51.032;7.082;2022-09-09T07:28:18;48450.84;;;-142.28;88.93
4149;BME280;2088;51.032;7.082;2022-09-09T07:30:53;48404.41;;;-142.28;87.81
4149;BME280;2088;51.032;7.082;2022-09-09T07:33:19;48383.13;;;-142.28;85.53
4149;BME280;2088;51.032;7.082;2022-09-09T07:35:47;48359.88;;;-142.28;85.03
4149;BME280;2088;51.032;7.082;2022-09-09T07:38:14;48348.28;;;-142.28;84.06
4149;BME280;2088;51.032;7.082;2022-09-09T07:40:40;48321.19;;;-142.28;84.50
4149;BME280;2088;51.032;7.082;2022-09-09T07:43:07;48303.78;;;-142.28;83.74
4149;BME280;2088;51.032;7.082;2022-09-09T07:45:34;48299.91;;;-142.28;84.02
4149;BME280;2088;51.032;7.082;2022-09-09T07:48:01;48301.84;;;-142.28;84.19
4149;BME280;2088;51.032;7.082;2022-09-09T07:50:28;48284.41;;;-142.28;82.81
4149;BME280;2088;51.032;7.082;2022-09-09T07:52:56;48272.81;;;-142.28;81.78
4149;BME280;2088;51.032;7.082;2022-09-09T07:55:23;48255.38;;;-142.28;81.55
4149;BME280;2088;51.032;7.082;2022-09-09T07:57:52;48230.22;;;-142.28;79.90
4149;BME280;2088;51.032;7.082;2022-09-09T08:00:19;48232.16;;;-142.28;78.61
4149;BME280;2088;51.032;7.082;2022-09-09T08:02:47;48230.22;;;-142.28;77.64
4149;BME280;2088;51.032;7.082;2022-09-09T08:05:14;48183.78;;;-142.28;75.78
4149;BME280;2088;51.032;7.082;2022-09-09T08:07:41;48210.88;;;-142.28;75.93
4149;BME280;2088;51.032;7.082;2022-09-09T08:10:10;48199.25;;;-142.28;75.10
4149;BME280;2088;51.032;7.082;2022-09-09T08:12:36;48181.84;;;-142.28;74.31
4149;BME280;2088;51.032;7.082;2022-09-09T08:15:04;48154.75;;;-142.28;71.64
4149;BME280;2088;51.032;7.082;2022-09-09T08:17:30;48166.38;;;-142.28;72.37
4149;BME280;2088;51.032;7.082;2022-09-09T08:19:58;48160.56;;;-142.28;72.85
4149;BME280;2088;51.032;7.082;2022-09-09T08:22:30;48148.94;;;-142.28;72.11
4149;BME280;2088;51.032;7.082;2022-09-09T08:24:56;48121.84;;;-142.28;72.35
4149;BME280;2088;51.032;7.082;2022-09-09T08:27:24;48139.28;;;-142.28;71.82
4149;BME280;2088;51.032;7.082;2022-09-09T08:29:51;48139.28;;;-142.28;71.51
4149;BME280;2088;51.032;7.082;2022-09-09T08:32:18;48148.94;;;-142.28;72.21
4149;BME280;2088;51.032;7.082;2022-09-09T08:34:44;48125.72;;;-142.28;72.01
4149;BME280;2088;51.032;7.082;2022-09-09T08:37:11;48141.22;;;-142.28;71.75
4149;BME280;2088;51.032;7.082;2022-09-09T08:39:37;48123.78;;;-142.28;70.31
4149;BME280;2088;51.032;7.082;2022-09-09T08:42:16;48110.25;;;-142.28;70.21
4149;BME280;2088;51.032;7.082;2022-09-09T08:45:00;48106.38;;;-142.28;69.67
4149;BME280;2088;51.032;7.082;2022-09-09T08:47:35;48079.28;;;-142.28;67.98
4149;BME280;2088;51.032;7.082;2022-09-09T08:50:18;48112.19;;;-142.28;68.38
4149;BME280;2088;51.032;7.082;2022-09-09T08:52:51;48125.72;;;-142.28;68.24
4149;BME280;2088;51.032;7.082;2022-09-09T08:55:25;48085.09;;;-142.28;68.14
4149;BME280;2088;51.032;7.082;2022-09-09T08:57:54;48094.75;;;-142.28;67.15
4149;BME280;2088;51.032;7.082;2022-09-09T09:00:31;48123.78;;;-142.28;67.27
4149;BME280;2088;51.032;7.082;2022-09-09T09:03:05;48092.81;;;-142.28;66.12
4149;BME280;2088;51.032;7.082;2022-09-09T09:05:36;48104.44;;;-142.28;66.86
4149;BME280;2088;51.032;7.082;2022-09-09T09:08:08;48110.25;;;-142.28;66.06
4149;BME280;2088;51.032;7.082;2022-09-09T09:10:45;48110.25;;;-142.28;65.13
4149;BME280;2088;51.032;7.082;2022-09-09T09:13:18;48094.75;;;-142.28;66.40
4149;BME280;2088;51.032;7.082;2022-09-09T09:15:52;48112.19;;;-142.28;66.96
4149;BME280;2088;51.032;7.082;2022-09-09T09:18:20;48096.69;;;-142.28;66.20
4149;BME280;2088;51.032;7.082;2022-09-09T09:20:55;48090.88;;;-142.28;65.29
4149;BME280;2088;51.032;7.082;2022-09-09T09:23:26;48079.28;;;-142.28;63.62
4149;BME280;2088;51.032;7.082;2022-09-09T09:25:58;48090.88;;;-142.28;63.75
4149;BME280;2088;51.032;7.082;2022-09-09T09:28:29;48065.72;;;-142.28;62.39
4149;BME280;2088;51.032;7.082;2022-09-09T09:31:00;48077.34;;;-142.28;61.56
4149;BME280;2088;51.032;7.082;2022-09-09T09:33:34;48071.53;;;-142.28;61.66
4149;BME280;2088;51.032;7.082;2022-09-09T09:36:06;48067.66;;;-142.28;62.13
4149;BME280;2088;51.032;7.082;2022-09-09T09:38:34;48059.94;;;-142.28;62.14
4149;BME280;2088;51.032;7.082;2022-09-09T09:41:01;48081.22;;;-142.28;62.64
4149;BME280;2088;51.032;7.082;2022-09-09T09:43:29;48067.66;;;-142.28;62.99
4149;BME280;2088;51.032;7.082;2022-09-09T09:45:58;48075.41;;;-142.28;63.85
4149;BME280;2088;51.032;7.082;2022-09-09T09:48:25;48094.75;;;-142.28;64.98
4149;BME280;2088;51.032;7.082;2022-09-09T09:50:54;48087.03;;;-142.28;64.77
4149;BME280;2088;51.032;7.082;2022-09-09T09:53:24;48061.88;;;-142.28;64.92
4149;BME280;2088;51.032;7.082;2022-09-09T09:55:57;48079.28;;;-142.28;64.52
4149;BME280;2088;51.032;7.082;2022-09-09T09:58:25;48087.03;;;-142.28;64.70
4149;BME280;2088;51.032;7.082;2022-09-09T10:00:53;48090.88;;;-142.28;63.66
4149;BME280;2088;51.032;7.082;2022-09-09T10:03:24;48046.38;;;-142.28;63.27
4149;BME280;2088;51.032;7.082;2022-09-09T10:05:52;48052.19;;;-142.28;62.85
4149;BME280;2088;51.032;7.082;2022-09-09T10:08:19;48073.47;;;-142.28;62.90
4149;BME280;2088;51.032;7.082;2022-09-09T10:11:05;48087.03;;;-142.28;62.97
4149;BME280;2088;51.032;7.082;2022-09-09T10:13:43;48079.28;;;-142.28;63.22
4149;BME280;2088;51.032;7.082;2022-09-09T10:16:25;48063.78;;;-142.28;62.79
4149;BME280;2088;51.032;7.082;2022-09-09T10:19:03;48081.22;;;-142.28;62.10
4149;BME280;2088;51.032;7.082;2022-09-09T10:22:10;48054.13;;;-142.28;61.75
4149;BME280;2088;51.032;7.082;2022-09-09T10:24:56;48081.22;;;-142.28;60.65
4149;BME280;2088;51.032;7.082;2022-09-09T10:27:32;48088.97;;;-142.28;61.11
4149;BME280;2088;51.032;7.082;2022-09-09T10:30:09;48052.19;;;-142.28;61.45
4149;BME280;2088;51.032;7.082;2022-09-09T10:32:42;48059.94;;;-142.28;61.83
4149;BME280;2088;51.032;7.082;2022-09-09T10:35:14;48050.25;;;-142.28;62.76
4149;BME280;2088;51.032;7.082;2022-09-09T10:38:03;48040.56;;;-142.28;63.89
4149;BME280;2088;51.032;7.082;2022-09-09T10:40:38;48075.41;;;-142.28;63.89
4149;BME280;2088;51.032;7.082;2022-09-09T10:43:19;48071.53;;;-142.28;64.29
4149;BME280;2088;51.032;7.082;2022-09-09T10:45:57;48063.78;;;-142.28;64.05
4149;BME280;2088;51.032;7.082;2022-09-09T10:48:31;48061.88;;;-142.28;63.95
4149;BME280;2088;51.032;7.082;2022-09-09T10:51:14;48073.47;;;-142.28;63.41
4149;BME280;2088;51.032;7.082;2022-09-09T10:53:51;48067.66;;;-142.28;62.92
4149;BME280;2088;51.032;7.082;2022-09-09T10:56:21;48056.06;;;-142.28;62.58
4149;BME280;2088;51.032;7.082;2022-09-09T10:58:52;48052.19;;;-142.28;60.77
4149;BME280;2088;51.032;7.082;2022-09-09T11:01:22;48065.72;;;-142.28;60.52
4149;BME280;2088;51.032;7.082;2022-09-09T11:03:54;48059.94;;;-142.28;59.01
4149;BME280;2088;51.032;7.082;2022-09-09T11:06:27;48065.72;;;-142.28;60.15
4149;BME280;2088;51.032;7.082;2022-09-09T11:08:57;48056.06;;;-142.28;59.96
4149;BME280;2088;51.032;7.082;2022-09-09T11:11:29;48046.38;;;-142.28;59.19
4149;BME280;2088;51.032;7.082;2022-09-09T11:14:02;48021.22;;;-142.28;57.22
4149;BME280;2088;51.032;7.082;2022-09-09T11:16:35;48044.44;;;-142.28;57.95
4149;BME280;2088;51.032;7.082;2022-09-09T11:19:12;48065.72;;;-142.28;58.67
4149;BME280;2088;51.032;7.082;2022-09-09T11:21:45;48048.31;;;-142.28;57.62
4149;BME280;2088;51.032;7.082;2022-09-09T11:24:14;48040.56;;;-142.28;56.30
4149;BME280;2088;51.032;7.082;2022-09-09T11:26:45;48052.19;;;-142.28;55.40
4149;BME280;2088;51.032;7.082;2022-09-09T11:29:37;48048.31;;;-142.28;56.16
4149;BME280;2088;51.032;7.082;2022-09-09T11:32:23;48036.72;;;-142.28;56.11
4149;BME280;2088;51.032;7.082;2022-09-09T11:34:56;48059.94;;;-142.28;55.88
4149;BME280;2088;51.032;7.082;2022-09-09T11:37:40;48083.16;;;-142.28;55.57
4149;BME280;2088;51.032;7.082;2022-09-09T11:40:20;48032.84;;;-142.28;55.32
4149;BME280;2088;51.032;7.082;2022-09-09T11:42:48;48052.19;;;-142.28;56.43
4149;BME280;2088;51.032;7.082;2022-09-09T11:45:21;48050.25;;;-142.28;56.74
4149;BME280;2088;51.032;7.082;2022-09-09T11:47:53;48059.94;;;-142.28;57.67
4149;BME280;2088;51.032;7.082;2022-09-09T11:50:34;48038.63;;;-142.28;57.04
4149;BME280;2088;51.032;7.082;2022-09-09T11:53:18;48054.13;;;-142.28;57.84
4149;BME280;2088;51.032;7.082;2022-09-09T11:56:00;48052.19;;;-142.28;57.66
4149;BME280;2088;51.032;7.082;2022-09-09T11:58:33;48048.31;;;-142.28;57.71
4149;BME280;2088;51.032;7.082;2022-09-09T12:01:13;48059.94;;;-142.28;57.84
4149;BME280;2088;51.032;7.082;2022-09-09T12:03:41;48058.00;;;-142.28;56.78
4149;BME280;2088;51.032;7.082;2022-09-09T12:06:15;48056.06;;;-142.28;57.00
4149;BME280;2088;51.032;7.082;2022-09-09T12:08:48;48042.50;;;-142.28;56.41
4149;BME280;2088;51.032;7.082;2022-09-09T12:11:25;48052.19;;;-142.28;57.49
4149;BME280;2088;51.032;7.082;2022-09-09T12:13:54;48052.19;;;-142.28;58.12
4149;BME280;2088;51.032;7.082;2022-09-09T12:16:32;48063.78;;;-142.28;58.12
4149;BME280;2088;51.032;7.082;2022-09-09T12:19:14;48063.78;;;-142.28;57.86
4149;BME280;2088;51.032;7.082;2022-09-09T12:21:48;48063.78;;;-142.28;58.40
4149;BME280;2088;51.032;7.082;2022-09-09T12:24:23;48048.31;;;-142.28;58.37
4149;BME280;2088;51.032;7.082;2022-09-09T12:26:58;48056.06;;;-142.28;59.59
4149;BME280;2088;51.032;7.082;2022-09-09T12:29:32;48059.94;;;-142.28;59.27
4149;BME280;2088;51.032;7.082;2022-09-09T12:32:07;48056.06;;;-142.28;59.96
4149;BME280;2088;51.032;7.082;2022-09-09T12:34:39;48071.53;;;-142.28;59.66
4149;BME280;2088;51.032;7.082;2022-09-09T12:37:13;48048.31;;;-142.28;59.74
4149;BME280;2088;51.032;7.082;2022-09-09T12:39:46;48050.25;;;-142.28;57.79
4149;BME280;2088;51.032;7.082;2022-09-09T12:42:17;48061.88;;;-142.28;56.53
4149;BME280;2088;51.032;7.082;2022-09-09T12:44:51;48034.78;;;-142.28;56.17
4149;BME280;2088;51.032;7.082;2022-09-09T12:47:20;48038.63;;;-142.28;56.25
4149;BME280;2088;51.032;7.082;2022-09-09T12:49:48;48046.38;;;-142.28;56.56
4149;BME280;2088;51.032;7.082;2022-09-09T12:52:20;48038.63;;;-142.28;57.47
4149;BME280;2088;51.032;7.082;2022-09-09T12:54:50;48046.38;;;-142.28;57.70
4149;BME280;2088;51.032;7.082;2022-09-09T12:57:19;48048.31;;;-142.28;58.01
4149;BME280;2088;51.032;7.082;2022-09-09T12:59:48;48044.44;;;-142.28;57.79
4149;BME280;2088;51.032;7.082;2022-09-09T13:02:19;48056.06;;;-142.28;58.75
4149;BME280;2088;51.032;7.082;2022-09-09T13:04:46;48040.56;;;-142.28;59.88
4149;BME280;2088;51.032;7.082;2022-09-09T13:07:13;48044.44;;;-142.28;59.14
4149;BME280;2088;51.032;7.082;2022-09-09T13:09:41;48063.78;;;-142.28;58.64
4149;BME280;2088;51.032;7.082;2022-09-09T13:12:14;48079.28;;;-142.28;59.19
4149;BME280;2088;51.032;7.082;2022-09-09T13:14:43;48040.56;;;-142.28;58.46
4149;BME280;2088;51.032;7.082;2022-09-09T13:17:18;48056.06;;;-142.28;57.17